sensor_id;sensor_type;location;lat;lon;timestamp;pressure;altitude;pressure_sealevel;temperature;humidity
20119;BME280;10220;42.716;23.306;2023-02-12T00:00:40;96257.56;;;1.51;64.24
20119;BME280;10220;42.716;23.306;2023-02-12T00:03:06;96235.13;;;1.34;59.59
20119;BME280;10220;42.716;23.306;2023-02-12T00:05:32;96301.44;;;1.76;59.63
20119;BME280;10220;42.716;23.306;2023-02-12T00:07:58;96311.56;;;1.78;59.10
20119;BME280;10220;42.716;23.306;2023-02-12T00:10:23;96293.81;;;1.97;60.98
20119;BME280;10220;42.716;23.306;2023-02-12T00:12:49;96283.16;;;1.92;59.39
20119;BME280;10220;42.716;23.306;2023-02-12T00:15:15;96277.19;;;1.51;58.66
20119;BME280;10220;42.716;23.306;2023-02-12T00:17:40;96307.31;;;1.57;59.10
20119;BME280;10220;42.716;23.306;2023-02-12T00:20:06;96265.09;;;1.21;59.30
20119;BME280;10220;42.716;23.306;2023-02-12T00:22:32;96292.25;;;1.43;59.08
20119;BME280;10220;42.716;23.306;2023-02-12T00:24:57;96304.22;;;1.42;59.64
20119;BME280;10220;42.716;23.306;2023-02-12T00:27:24;96305.91;;;1.21;60.02
20119;BME280;10220;42.716;23.306;2023-02-12T00:29:49;96300.22;;;1.18;60.67
20119;BME280;10220;42.716;23.306;2023-02-12T00:32:15;96300.00;;;1.21;60.84
20119;BME280;10220;42.716;23.306;2023-02-12T00:34:45;96283.19;;;1.18;60.49
20119;BME280;10220;42.716;23.306;2023-02-12T00:37:10;96287.38;;;1.19;59.79
20119;BME280;10220;42.716;23.306;2023-02-12T00:39:36;96282.34;;;1.18;59.75
20119;BME280;10220;42.716;23.306;2023-02-12T00:42:03;96232.22;;;0.97;59.80
20119;BME280;10220;42.716;23.306;2023-02-12T00:44:28;96246.56;;;1.09;59.34
20119;BME280;10220;42.716;23.306;2023-02-12T00:46:54;96281.47;;;1.50;58.69
20119;BME280;10220;42.716;23.306;2023-02-12T00:49:19;96265.03;;;1.43;59.15
20119;BME280;10220;42.716;23.306;2023-02-12T00:51:45;96241.00;;;1.46;58.85
20119;BME280;10220;42.716;23.306;2023-02-12T00:54:10;96242.38;;;1.18;59.74
20119;BME280;10220;42.716;23.306;2023-02-12T00:56:36;96278.84;;;1.41;59.30
20119;BME280;10220;42.716;23.306;2023-02-12T00:59:01;96155.16;;;0.93;59.61
20119;BME280;10220;42.716;23.306;2023-02-12T01:01:26;96256.59;;;1.32;59.84
20119;BME280;10220;42.716;23.306;2023-02-12T01:03:52;96253.44;;;1.39;59.88
20119;BME280;10220;42.716;23.306;2023-02-12T01:06:17;96244.63;;;1.32;59.89
20119;BME280;10220;42.716;23.306;2023-02-12T01:08:42;96247.97;;;1.44;59.98
20119;BME280;10220;42.716;23.306;2023-02-12T01:11:11;96199.66;;;1.00;59.52
20119;BME280;10220;42.716;23.306;2023-02-12T01:13:37;96227.84;;;1.30;59.79
20119;BME280;10220;42.716;23.306;2023-02-12T01:16:16;96255.94;;;1.61;59.52
20119;BME280;10220;42.716;23.306;2023-02-12T01:18:42;96264.06;;;1.55;58.76
20119;BME280;10220;42.716;23.306;2023-02-12T01:21:15;96249.19;;;1.29;59.20
20119;BME280;10220;42.716;23.306;2023-02-12T01:23:42;96283.34;;;1.37;59.60
20119;BME280;10220;42.716;23.306;2023-02-12T01:26:09;96242.94;;;1.22;59.63
20119;BME280;10220;42.716;23.306;2023-02-12T01:28:38;96278.09;;;1.18;60.43
20119;BME280;10220;42.716;23.306;2023-02-12T01:31:12;96229.72;;;0.86;61.67
20119;BME280;10220;42.716;23.306;2023-02-12T01:33:39;96282.72;;;1.14;62.43
20119;BME280;10220;42.716;23.306;2023-02-12T01:36:04;96251.78;;;1.07;63.11
20119;BME280;10220;42.716;23.306;2023-02-12T01:38:30;96269.88;;;0.93;63.89
20119;BME280;10220;42.716;23.306;2023-02-12T01:41:19;96277.31;;;0.85;66.09
20119;BME280;10220;42.716;23.306;2023-02-12T01:43:45;96184.00;;;0.30;66.96
20119;BME280;10220;42.716;23.306;2023-02-12T01:46:13;96254.38;;;0.85;67.75
20119;BME280;10220;42.716;23.306;2023-02-12T01:48:41;96249.63;;;0.81;68.18
20119;BME280;10220;42.716;23.306;2023-02-12T01:51:13;96211.31;;;0.60;68.32
20119;BME280;10220;42.716;23.306;2023-02-12T01:53:44;96168.38;;;0.23;69.07
20119;BME280;10220;42.716;23.306;2023-02-12T01:56:11;96232.63;;;0.49;69.77
20119;BME280;10220;42.716;23.306;2023-02-12T01:58:40;96217.56;;;0.35;71.70
20119;BME280;10220;42.716;23.306;2023-02-12T02:01:10;96243.06;;;0.46;72.99
20119;BME280;10220;42.716;23.306;2023-02-12T02:03:38;96239.56;;;0.25;74.99
20119;BME280;10220;42.716;23.306;2023-02-12T02:06:11;96222.63;;;0.02;77.40
20119;BME280;10220;42.716;23.306;2023-02-12T02:08:38;96243.38;;;0.19;78.74
20119;BME280;10220;42.716;23.306;2023-02-12T02:11:05;96239.31;;;0.06;80.55
20119;BME280;10220;42.716;23.306;2023-02-12T02:13:51;96224.69;;;-0.14;82.16
20119;BME280;10220;42.716;23.306;2023-02-12T02:16:36;96197.63;;;-0.15;83.67
20119;BME280;10220;42.716;23.306;2023-02-12T02:28:17;96174.84;;;-0.16;86.19
20119;BME280;10220;42.716;23.306;2023-02-12T02:34:10;96237.00;;;0.14;87.10
20119;BME280;10220;42.716;23.306;2023-02-12T02:36:45;96223.78;;;0.09;88.48
20119;BME280;10220;42.716;23.306;2023-02-12T02:44:33;96230.06;;;0.16;87.90
20119;BME280;10220;42.716;23.306;2023-02-12T02:47:01;96221.72;;;0.14;86.38
20119;BME280;10220;42.716;23.306;2023-02-12T02:49:33;96243.16;;;0.22;87.14
20119;BME280;10220;42.716;23.306;2023-02-12T02:52:11;96246.16;;;0.49;85.76
20119;BME280;10220;42.716;23.306;2023-02-12T02:54:42;96254.63;;;0.60;83.50
20119;BME280;10220;42.716;23.306;2023-02-12T02:57:13;96180.41;;;0.32;82.21
20119;BME280;10220;42.716;23.306;2023-02-12T02:59:45;96256.22;;;0.72;80.84
20119;BME280;10220;42.716;23.306;2023-02-12T03:02:19;96231.56;;;0.73;80.92
20119;BME280;10220;42.716;23.306;2023-02-12T03:05:08;96247.84;;;1.03;80.79
20119;BME280;10220;42.716;23.306;2023-02-12T03:07:41;96243.81;;;1.01;79.15
20119;BME280;10220;42.716;23.306;2023-02-12T03:10:15;96229.63;;;0.55;80.14
20119;BME280;10220;42.716;23.306;2023-02-12T03:12:53;96251.63;;;0.45;82.39
20119;BME280;10220;42.716;23.306;2023-02-12T03:15:34;96249.41;;;0.29;84.80
20119;BME280;10220;42.716;23.306;2023-02-12T03:18:05;96241.28;;;0.24;86.93
20119;BME280;10220;42.716;23.306;2023-02-12T03:20:37;96181.13;;;0.01;87.51
20119;BME280;10220;42.716;23.306;2023-02-12T03:23:10;96193.47;;;0.06;87.29
20119;BME280;10220;42.716;23.306;2023-02-12T03:25:52;96223.25;;;0.27;85.81
20119;BME280;10220;42.716;23.306;2023-02-12T03:28:26;96229.84;;;0.62;85.22
20119;BME280;10220;42.716;23.306;2023-02-12T03:31:02;96148.81;;;0.13;84.75
20119;BME280;10220;42.716;23.306;2023-02-12T03:36:17;96213.72;;;0.62;83.34
20119;BME280;10220;42.716;23.306;2023-02-12T03:38:55;96227.19;;;0.64;83.23
20119;BME280;10220;42.716;23.306;2023-02-12T03:41:36;96153.78;;;0.36;81.18
20119;BME280;10220;42.716;23.306;2023-02-12T03:47:36;96111.19;;;0.16;80.04
20119;BME280;10220;42.716;23.306;2023-02-12T03:50:49;96219.00;;;0.92;78.94
20119;BME280;10220;42.716;23.306;2023-02-12T03:53:05;96183.03;;;0.63;76.89
20119;BME280;10220;42.716;23.306;2023-02-12T03:55:31;96140.00;;;0.50;76.92
20119;BME280;10220;42.716;23.306;2023-02-12T03:58:02;96199.22;;;0.84;77.16
20119;BME280;10220;42.716;23.306;2023-02-12T04:00:30;96206.44;;;0.79;77.18
20119;BME280;10220;42.716;23.306;2023-02-12T04:02:56;96220.72;;;1.02;75.87
20119;BME280;10220;42.716;23.306;2023-02-12T04:05:26;96218.06;;;1.04;76.25
20119;BME280;10220;42.716;23.306;2023-02-12T04:07:54;96204.09;;;0.87;77.75
20119;BME280;10220;42.716;23.306;2023-02-12T04:10:26;96234.19;;;0.93;77.45
20119;BME280;10220;42.716;23.306;2023-02-12T04:13:20;96211.38;;;1.03;76.81
20119;BME280;10220;42.716;23.306;2023-02-12T04:21:11;96209.09;;;0.67;80.39
20119;BME280;10220;42.716;23.306;2023-02-12T04:31:39;96245.81;;;0.75;81.57
20119;BME280;10220;42.716;23.306;2023-02-12T04:37:20;96250.00;;;0.55;85.73
20119;BME280;10220;42.716;23.306;2023-02-12T04:39:47;96241.84;;;0.71;86.04
20119;BME280;10220;42.716;23.306;2023-02-12T04:42:13;96213.38;;;0.56;85.86
20119;BME280;10220;42.716;23.306;2023-02-12T04:44:41;96255.53;;;0.59;86.81
20119;BME280;10220;42.716;23.306;2023-02-12T04:47:09;96187.25;;;0.32;86.98
20119;BME280;10220;42.716;23.306;2023-02-12T04:49:35;96206.81;;;0.42;87.74
20119;BME280;10220;42.716;23.306;2023-02-12T04:52:00;96242.44;;;0.75;87.75
20119;BME280;10220;42.716;23.306;2023-02-12T04:54:26;96238.16;;;0.64;87.36
20119;BME280;10220;42.716;23.306;2023-02-12T04:56:51;96259.69;;;0.71;86.82
20119;BME280;10220;42.716;23.306;2023-02-12T04:59:17;96262.50;;;0.79;85.60
20119;BME280;10220;42.716;23.306;2023-02-12T05:01:42;96191.41;;;0.44;84.42
20119;BME280;10220;42.716;23.306;2023-02-12T05:04:10;96251.91;;;0.95;84.04
20119;BME280;10220;42.716;23.306;2023-02-12T05:06:37;96258.72;;;1.05;82.07
20119;BME280;10220;42.716;23.306;2023-02-12T05:09:03;96207.78;;;0.94;81.19
20119;BME280;10220;42.716;23.306;2023-02-12T05:11:29;96239.00;;;1.18;79.90
20119;BME280;10220;42.716;23.306;2023-02-12T05:13:55;96243.25;;;1.28;79.04
20119;BME280;10220;42.716;23.306;2023-02-12T05:16:21;96248.34;;;1.39;77.33
20119;BME280;10220;42.716;23.306;2023-02-12T05:18:47;96238.34;;;1.47;76.52
20119;BME280;10220;42.716;23.306;2023-02-12T05:21:13;96247.38;;;1.51;75.74
20119;BME280;10220;42.716;23.306;2023-02-12T05:23:39;96252.34;;;1.53;75.46
20119;BME280;10220;42.716;23.306;2023-02-12T05:26:11;96242.88;;;1.44;76.50
20119;BME280;10220;42.716;23.306;2023-02-12T05:28:37;96237.47;;;1.26;77.13
20119;BME280;10220;42.716;23.306;2023-02-12T05:31:05;96266.41;;;1.47;78.30
20119;BME280;10220;42.716;23.306;2023-02-12T05:33:30;96266.72;;;1.54;79.82
20119;BME280;10220;42.716;23.306;2023-02-12T05:36:03;96255.34;;;1.26;80.16
20119;BME280;10220;42.716;23.306;2023-02-12T05:38:29;96256.34;;;1.35;80.47
20119;BME280;10220;42.716;23.306;2023-02-12T05:41:00;96278.25;;;1.48;81.92
20119;BME280;10220;42.716;23.306;2023-02-12T05:43:26;96260.28;;;1.39;83.29
20119;BME280;10220;42.716;23.306;2023-02-12T05:45:51;96246.72;;;1.38;83.78
20119;BME280;10220;42.716;23.306;2023-02-12T05:48:16;96253.13;;;1.33;84.39
20119;BME280;10220;42.716;23.306;2023-02-12T05:50:42;96242.84;;;1.13;86.08
20119;BME280;10220;42.716;23.306;2023-02-12T05:53:07;96286.03;;;1.47;87.04
20119;BME280;10220;42.716;23.306;2023-02-12T05:55:32;96223.88;;;0.95;89.28
20119;BME280;10220;42.716;23.306;2023-02-12T05:57:58;96256.69;;;0.99;92.25
20119;BME280;10220;42.716;23.306;2023-02-12T06:00:23;96298.81;;;1.25;94.31
20119;BME280;10220;42.716;23.306;2023-02-12T06:02:49;96262.34;;;1.03;96.54
20119;BME280;10220;42.716;23.306;2023-02-12T06:05:33;96305.56;;;1.15;100.00
20119;BME280;10220;42.716;23.306;2023-02-12T06:07:58;96307.22;;;0.83;100.00
20119;BME280;10220;42.716;23.306;2023-02-12T06:10:24;96330.94;;;0.95;100.00
20119;BME280;10220;42.716;23.306;2023-02-12T06:12:53;96300.97;;;0.87;100.00
20119;BME280;10220;42.716;23.306;2023-02-12T06:15:18;96289.00;;;0.99;100.00
20119;BME280;10220;42.716;23.306;2023-02-12T06:17:44;96285.84;;;1.06;100.00
20119;BME280;10220;42.716;23.306;2023-02-12T06:20:09;96332.09;;;1.13;100.00
20119;BME280;10220;42.716;23.306;2023-02-12T06:22:35;96305.78;;;1.01;100.00
20119;BME280;10220;42.716;23.306;2023-02-12T06:25:03;96303.25;;;1.12;100.00
20119;BME280;10220;42.716;23.306;2023-02-12T06:27:29;96297.47;;;0.99;100.00
20119;BME280;10220;42.716;23.306;2023-02-12T06:29:54;96262.59;;;0.78;100.00
20119;BME280;10220;42.716;23.306;2023-02-12T06:32:19;96302.19;;;1.04;100.00
20119;BME280;10220;42.716;23.306;2023-02-12T06:34:45;96307.06;;;1.17;100.00
20119;BME280;10220;42.716;23.306;2023-02-12T06:37:11;96306.50;;;1.03;100.00
20119;BME280;10220;42.716;23.306;2023-02-12T06:39:37;96328.66;;;1.03;100.00
20119;BME280;10220;42.716;23.306;2023-02-12T06:42:02;96317.16;;;1.08;100.00
20119;BME280;10220;42.716;23.306;2023-02-12T06:44:28;96324.47;;;1.23;100.00
20119;BME280;10220;42.716;23.306;2023-02-12T06:46:53;96325.50;;;1.21;100.00
20119;BME280;10220;42.716;23.306;2023-02-12T06:49:18;96323.63;;;1.23;100.00
20119;BME280;10220;42.716;23.306;2023-02-12T06:51:44;96282.88;;;0.90;100.00
20119;BME280;10220;42.716;23.306;2023-02-12T06:54:14;96318.44;;;1.14;100.00
20119;BME280;10220;42.716;23.306;2023-02-12T06:56:39;96274.75;;;1.07;100.00
20119;BME280;10220;42.716;23.306;2023-02-12T06:59:05;96322.59;;;1.15;100.00
20119;BME280;10220;42.716;23.306;2023-02-12T07:01:30;96296.88;;;0.96;100.00
20119;BME280;10220;42.716;23.306;2023-02-12T07:03:59;96260.38;;;0.84;100.00
20119;BME280;10220;42.716;23.306;2023-02-12T07:06:27;96322.72;;;1.24;100.00
20119;BME280;10220;42.716;23.306;2023-02-12T07:08:53;96329.06;;;1.40;100.00
20119;BME280;10220;42.716;23.306;2023-02-12T07:11:22;96301.03;;;1.08;100.00
20119;BME280;10220;42.716;23.306;2023-02-12T07:13:48;96324.34;;;1.25;100.00
20119;BME280;10220;42.716;23.306;2023-02-12T07:16:15;96328.16;;;1.09;100.00
20119;BME280;10220;42.716;23.306;2023-02-12T07:18:41;96328.53;;;1.04;100.00
20119;BME280;10220;42.716;23.306;2023-02-12T07:21:08;96301.06;;;0.97;100.00
20119;BME280;10220;42.716;23.306;2023-02-12T07:23:35;96326.91;;;1.03;100.00
20119;BME280;10220;42.716;23.306;2023-02-12T07:26:20;96311.81;;;1.11;100.00
20119;BME280;10220;42.716;23.306;2023-02-12T07:28:46;96283.66;;;0.91;100.00
20119;BME280;10220;42.716;23.306;2023-02-12T07:31:14;96337.44;;;1.10;100.00
20119;BME280;10220;42.716;23.306;2023-02-12T07:33:41;96329.56;;;1.13;100.00
20119;BME280;10220;42.716;23.306;2023-02-12T07:36:12;96309.06;;;0.92;100.00
20119;BME280;10220;42.716;23.306;2023-02-12T07:38:38;96318.00;;;0.98;100.00
20119;BME280;10220;42.716;23.306;2023-02-12T07:41:12;96309.38;;;0.99;100.00
20119;BME280;10220;42.716;23.306;2023-02-12T07:43:42;96335.22;;;1.05;100.00
20119;BME280;10220;42.716;23.306;2023-02-12T07:46:20;96355.28;;;1.10;100.00
20119;BME280;10220;42.716;23.306;2023-02-12T07:48:46;96284.72;;;0.77;100.00
20119;BME280;10220;42.716;23.306;2023-02-12T07:51:14;96342.44;;;1.11;100.00
20119;BME280;10220;42.716;23.306;2023-02-12T07:53:40;96351.81;;;1.11;100.00
20119;BME280;10220;42.716;23.306;2023-02-12T07:56:11;96345.19;;;1.19;100.00
20119;BME280;10220;42.716;23.306;2023-02-12T07:58:38;96340.44;;;1.04;100.00
20119;BME280;10220;42.716;23.306;2023-02-12T08:01:13;96358.66;;;1.10;100.00
20119;BME280;10220;42.716;23.306;2023-02-12T08:03:40;96292.94;;;0.70;100.00
20119;BME280;10220;42.716;23.306;2023-02-12T08:06:08;96348.34;;;0.90;100.00
20119;BME280;10220;42.716;23.306;2023-02-12T08:08:33;96323.56;;;1.03;100.00
20119;BME280;10220;42.716;23.306;2023-02-12T08:10:59;96360.03;;;1.14;100.00
20119;BME280;10220;42.716;23.306;2023-02-12T08:13:24;96283.59;;;0.70;100.00
20119;BME280;10220;42.716;23.306;2023-02-12T08:15:50;96336.66;;;1.09;100.00
20119;BME280;10220;42.716;23.306;2023-02-12T08:18:23;96348.69;;;1.07;100.00
20119;BME280;10220;42.716;23.306;2023-02-12T08:20:48;96320.88;;;0.82;100.00
20119;BME280;10220;42.716;23.306;2023-02-12T08:23:14;96343.38;;;0.99;100.00
20119;BME280;10220;42.716;23.306;2023-02-12T08:25:39;96335.59;;;1.01;100.00
20119;BME280;10220;42.716;23.306;2023-02-12T08:28:04;96368.38;;;1.05;100.00
20119;BME280;10220;42.716;23.306;2023-02-12T08:30:48;96354.25;;;1.01;100.00
20119;BME280;10220;42.716;23.306;2023-02-12T08:33:14;96320.66;;;0.85;100.00
20119;BME280;10220;42.716;23.306;2023-02-12T08:35:39;96367.34;;;1.08;100.00
20119;BME280;10220;42.716;23.306;2023-02-12T08:38:05;96360.84;;;1.04;100.00
20119;BME280;10220;42.716;23.306;2023-02-12T08:40:30;96354.72;;;1.06;100.00
20119;BME280;10220;42.716;23.306;2023-02-12T08:42:55;96343.25;;;0.90;100.00
20119;BME280;10220;42.716;23.306;2023-02-12T08:45:21;96364.56;;;1.11;100.00
20119;BME280;10220;42.716;23.306;2023-02-12T08:47:47;96331.19;;;1.14;100.00
20119;BME280;10220;42.716;23.306;2023-02-12T08:50:12;96359.81;;;1.28;100.00
20119;BME280;10220;42.716;23.306;2023-02-12T08:52:38;96355.66;;;1.16;100.00
20119;BME280;10220;42.716;23.306;2023-02-12T08:55:03;96392.84;;;1.29;100.00
20119;BME280;10220;42.716;23.306;2023-02-12T08:57:28;96369.44;;;1.14;100.00
20119;BME280;10220;42.716;23.306;2023-02-12T08:59:54;96381.97;;;1.27;100.00
20119;BME280;10220;42.716;23.306;2023-02-12T09:02:19;96360.50;;;1.19;100.00
20119;BME280;10220;42.716;23.306;2023-02-12T09:04:45;96387.75;;;1.40;100.00
20119;BME280;10220;42.716;23.306;2023-02-12T09:07:10;96373.59;;;1.25;100.00
20119;BME280;10220;42.716;23.306;2023-02-12T09:09:35;96392.84;;;1.18;100.00
20119;BME280;10220;42.716;23.306;2023-02-12T09:12:01;96377.69;;;1.17;100.00
20119;BME280;10220;42.716;23.306;2023-02-12T09:14:26;96390.41;;;1.39;100.00
20119;BME280;10220;42.716;23.306;2023-02-12T09:16:52;96391.44;;;1.47;100.00
20119;BME280;10220;42.716;23.306;2023-02-12T09:19:18;96384.72;;;1.35;100.00
20119;BME280;10220;42.716;23.306;2023-02-12T09:21:44;96413.47;;;1.59;100.00
20119;BME280;10220;42.716;23.306;2023-02-12T09:24:09;96331.94;;;1.47;100.00
20119;BME280;10220;42.716;23.306;2023-02-12T09:26:35;96368.31;;;1.60;100.00
20119;BME280;10220;42.716;23.306;2023-02-12T09:29:03;96414.78;;;1.96;100.00
20119;BME280;10220;42.716;23.306;2023-02-12T09:31:30;96333.56;;;1.48;100.00
20119;BME280;10220;42.716;23.306;2023-02-12T09:34:04;96371.69;;;1.60;100.00
20119;BME280;10220;42.716;23.306;2023-02-12T09:36:30;96399.63;;;1.83;100.00
20119;BME280;10220;42.716;23.306;2023-02-12T09:38:57;96396.59;;;1.78;100.00
20119;BME280;10220;42.716;23.306;2023-02-12T09:41:40;96400.28;;;1.85;100.00
20119;BME280;10220;42.716;23.306;2023-02-12T09:46:58;96420.38;;;1.90;100.00
20119;BME280;10220;42.716;23.306;2023-02-12T09:52:24;96367.13;;;1.74;100.00
20119;BME280;10220;42.716;23.306;2023-02-12T09:54:51;96401.00;;;1.76;100.00
20119;BME280;10220;42.716;23.306;2023-02-12T09:57:36;96373.50;;;1.80;100.00
20119;BME280;10220;42.716;23.306;2023-02-12T10:00:07;96432.94;;;1.82;100.00
20119;BME280;10220;42.716;23.306;2023-02-12T10:02:35;96427.22;;;1.89;100.00
20119;BME280;10220;42.716;23.306;2023-02-12T10:05:01;96357.47;;;1.89;100.00
20119;BME280;10220;42.716;23.306;2023-02-12T10:17:53;96413.91;;;2.37;100.00
20119;BME280;10220;42.716;23.306;2023-02-12T10:25:55;96414.81;;;2.88;100.00
20119;BME280;10220;42.716;23.306;2023-02-12T10:28:26;96412.59;;;2.74;100.00
20119;BME280;10220;42.716;23.306;2023-02-12T10:30:56;96412.53;;;2.44;100.00
20119;BME280;10220;42.716;23.306;2023-02-12T10:33:32;96416.13;;;2.42;100.00
20119;BME280;10220;42.716;23.306;2023-02-12T10:36:05;96418.50;;;2.54;100.00
20119;BME280;10220;42.716;23.306;2023-02-12T10:38:38;96409.47;;;2.91;100.00
20119;BME280;10220;42.716;23.306;2023-02-12T10:41:09;96396.03;;;2.98;100.00
20119;BME280;10220;42.716;23.306;2023-02-12T10:43:37;96423.44;;;2.87;100.00
20119;BME280;10220;42.716;23.306;2023-02-12T10:46:03;96420.69;;;2.99;100.00
20119;BME280;10220;42.716;23.306;2023-02-12T10:48:37;96406.44;;;3.06;100.00
20119;BME280;10220;42.716;23.306;2023-02-12T10:53:42;96408.00;;;3.18;100.00
20119;BME280;10220;42.716;23.306;2023-02-12T10:58:41;96420.59;;;2.81;100.00
20119;BME280;10220;42.716;23.306;2023-02-12T11:01:19;96414.03;;;2.88;100.00
20119;BME280;10220;42.716;23.306;2023-02-12T11:03:46;96412.56;;;2.94;100.00
20119;BME280;10220;42.716;23.306;2023-02-12T11:08:37;96366.16;;;2.99;100.00
20119;BME280;10220;42.716;23.306;2023-02-12T11:13:31;96431.56;;;3.51;100.00
20119;BME280;10220;42.716;23.306;2023-02-12T11:15:57;96428.81;;;3.73;100.00
20119;BME280;10220;42.716;23.306;2023-02-12T11:18:28;96400.72;;;4.02;100.00
20119;BME280;10220;42.716;23.306;2023-02-12T11:21:00;96392.09;;;3.63;100.00
20119;BME280;10220;42.716;23.306;2023-02-12T11:26:02;96403.00;;;4.14;100.00
20119;BME280;10220;42.716;23.306;2023-02-12T11:28:29;96395.94;;;3.78;100.00
20119;BME280;10220;42.716;23.306;2023-02-12T11:31:17;96396.53;;;4.10;100.00
20119;BME280;10220;42.716;23.306;2023-02-12T11:33:44;96396.25;;;4.41;100.00
20119;BME280;10220;42.716;23.306;2023-02-12T11:36:24;96376.28;;;4.26;100.00
20119;BME280;10220;42.716;23.306;2023-02-12T11:38:55;96416.38;;;4.46;100.00
20119;BME280;10220;42.716;23.306;2023-02-12T11:41:34;96406.13;;;4.08;100.00
20119;BME280;10220;42.716;23.306;2023-02-12T11:44:11;96421.88;;;4.04;100.00
20119;BME280;10220;42.716;23.306;2023-02-12T11:46:37;96377.47;;;3.84;100.00
20119;BME280;10220;42.716;23.306;2023-02-12T11:49:04;96408.06;;;3.76;100.00
20119;BME280;10220;42.716;23.306;2023-02-12T11:51:33;96380.44;;;3.99;100.00
20119;BME280;10220;42.716;23.306;2023-02-12T11:54:02;96366.69;;;3.90;100.00
20119;BME280;10220;42.716;23.306;2023-02-12T11:56:45;96368.59;;;3.98;100.00
20119;BME280;10220;42.716;23.306;2023-02-12T11:59:30;96414.06;;;4.14;100.00
20119;BME280;10220;42.716;23.306;2023-02-12T12:01:58;96392.75;;;4.05;100.00
20119;BME280;10220;42.716;23.306;2023-02-12T12:04:26;96413.66;;;4.19;100.00
20119;BME280;10220;42.716;23.306;2023-02-12T12:06:58;96404.47;;;4.07;100.00
20119;BME280;10220;42.716;23.306;2023-02-12T12:09:38;96410.84;;;4.50;100.00
20119;BME280;10220;42.716;23.306;2023-02-12T12:14:34;96400.56;;;4.22;100.00
20119;BME280;10220;42.716;23.306;2023-02-12T12:17:25;96408.75;;;3.88;100.00
20119;BME280;10220;42.716;23.306;2023-02-12T12:20:20;96393.03;;;4.02;100.00
20119;BME280;10220;42.716;23.306;2023-02-12T12:23:06;96407.59;;;4.39;100.00
20119;BME280;10220;42.716;23.306;2023-02-12T12:25:42;96395.72;;;4.00;100.00
20119;BME280;10220;42.716;23.306;2023-02-12T12:28:33;96414.22;;;4.13;100.00
20119;BME280;10220;42.716;23.306;2023-02-12T12:31:26;96410.56;;;4.34;100.00
20119;BME280;10220;42.716;23.306;2023-02-12T12:34:08;96418.94;;;4.08;100.00
20119;BME280;10220;42.716;23.306;2023-02-12T12:39:29;96415.28;;;4.39;100.00
20119;BME280;10220;42.716;23.306;2023-02-12T12:56:41;96428.13;;;4.29;100.00
20119;BME280;10220;42.716;23.306;2023-02-12T13:10:39;96410.03;;;4.12;100.00
20119;BME280;10220;42.716;23.306;2023-02-12T13:16:38;96444.06;;;4.61;100.00
20119;BME280;10220;42.716;23.306;2023-02-12T13:19:21;96424.50;;;4.51;100.00
20119;BME280;10220;42.716;23.306;2023-02-12T13:21:58;96456.19;;;4.68;100.00
20119;BME280;10220;42.716;23.306;2023-02-12T13:27:03;96446.22;;;4.47;100.00
20119;BME280;10220;42.716;23.306;2023-02-12T13:29:51;96446.34;;;4.45;100.00
20119;BME280;10220;42.716;23.306;2023-02-12T13:32:24;96382.06;;;4.00;100.00
20119;BME280;10220;42.716;23.306;2023-02-12T13:34:53;96438.66;;;4.26;100.00
20119;BME280;10220;42.716;23.306;2023-02-12T13:37:30;96457.00;;;4.31;100.00
20119;BME280;10220;42.716;23.306;2023-02-12T13:40:02;96462.13;;;4.41;100.00
20119;BME280;10220;42.716;23.306;2023-02-12T13:42:44;96455.38;;;4.30;100.00
20119;BME280;10220;42.716;23.306;2023-02-12T13:50:48;96468.91;;;4.51;100.00
20119;BME280;10220;42.716;23.306;2023-02-12T13:56:42;96465.34;;;4.24;100.00
20119;BME280;10220;42.716;23.306;2023-02-12T13:59:38;96464.22;;;4.07;100.00
20119;BME280;10220;42.716;23.306;2023-02-12T14:04:45;96466.56;;;4.20;100.00
20119;BME280;10220;42.716;23.306;2023-02-12T14:07:13;96424.41;;;3.94;100.00
20119;BME280;10220;42.716;23.306;2023-02-12T14:09:58;96480.59;;;4.35;100.00
20119;BME280;10220;42.716;23.306;2023-02-12T14:15:03;96475.53;;;3.96;100.00
20119;BME280;10220;42.716;23.306;2023-02-12T14:24:57;96497.47;;;4.37;100.00
20119;BME280;10220;42.716;23.306;2023-02-12T14:27:43;96500.81;;;4.19;100.00
20119;BME280;10220;42.716;23.306;2023-02-12T14:35:43;96511.69;;;4.02;100.00
20119;BME280;10220;42.716;23.306;2023-02-12T14:43:36;96537.19;;;4.04;100.00
20119;BME280;10220;42.716;23.306;2023-02-12T14:51:21;96524.41;;;3.74;100.00
20119;BME280;10220;42.716;23.306;2023-02-12T14:53:48;96526.78;;;3.96;100.00
20119;BME280;10220;42.716;23.306;2023-02-12T14:56:20;96524.31;;;3.85;100.00
20119;BME280;10220;42.716;23.306;2023-02-12T14:58:48;96555.28;;;4.11;100.00
20119;BME280;10220;42.716;23.306;2023-02-12T15:01:14;96521.84;;;3.74;100.00
20119;BME280;10220;42.716;23.306;2023-02-12T15:03:45;96541.97;;;4.17;100.00
20119;BME280;10220;42.716;23.306;2023-02-12T15:06:19;96527.53;;;3.57;100.00
20119;BME280;10220;42.716;23.306;2023-02-12T15:08:51;96550.84;;;3.74;100.00
20119;BME280;10220;42.716;23.306;2023-02-12T15:16:59;96557.03;;;3.72;100.00
20119;BME280;10220;42.716;23.306;2023-02-12T15:19:42;96583.22;;;3.75;100.00
20119;BME280;10220;42.716;23.306;2023-02-12T15:22:21;96584.75;;;3.67;100.00
20119;BME280;10220;42.716;23.306;2023-02-12T15:24:47;96536.19;;;3.36;100.00
20119;BME280;10220;42.716;23.306;2023-02-12T15:27:14;96580.53;;;3.56;100.00
20119;BME280;10220;42.716;23.306;2023-02-12T15:29:48;96569.78;;;3.42;100.00
20119;BME280;10220;42.716;23.306;2023-02-12T15:32:26;96581.56;;;3.34;100.00
20119;BME280;10220;42.716;23.306;2023-02-12T15:34:53;96620.75;;;3.45;100.00
20119;BME280;10220;42.716;23.306;2023-02-12T15:37:28;96614.38;;;3.40;100.00
20119;BME280;10220;42.716;23.306;2023-02-12T15:39:59;96619.88;;;3.35;100.00
20119;BME280;10220;42.716;23.306;2023-02-12T15:45:16;96630.78;;;3.37;100.00
20119;BME280;10220;42.716;23.306;2023-02-12T15:47:44;96592.59;;;3.25;100.00